Time;durP1;ratioP1;P1;durP2;ratioP2;P2;SDS_P1;SDS_P2;PMS_P1;PMS_P2;Temp;Humidity;BMP_temperature;BMP_pressure;BME280_temperature;BME280_humidity;BME280_pressure;Samples;Min_cycle;Max_cycle;Signal;HPM_P1;HPM_P2
2022/09/14 00:01:35;;;;;;;0.10;0.10;;;21.50;99.90;;;;;;5038207;28;20391;-69
2022/09/14 00:04:05;;;;;;;0.00;0.00;;;21.40;99.90;;;;;;5045989;28;20209;-70
2022/09/14 00:06:32;;;;;;;0.30;0.20;;;21.40;99.90;;;;;;5047164;28;20174;-70
2022/09/14 00:09:02;;;;;;;0.00;0.00;;;21.40;99.90;;;;;;5047863;28;20221;-70
2022/09/14 00:11:29;;;;;;;0.00;0.00;;;21.40;99.90;;;;;;5035818;28;20182;-70
2022/09/14 00:13:56;;;;;;;0.40;0.40;;;21.40;99.90;;;;;;5034146;28;20197;-70
2022/09/14 00:16:25;;;;;;;0.82;0.80;;;21.40;99.90;;;;;;5046137;28;20178;-69
2022/09/14 00:18:52;;;;;;;0.52;0.45;;;21.30;99.90;;;;;;5042085;28;20517;-70
2022/09/14 00:21:18;;;;;;;0.17;0.17;;;21.20;99.90;;;;;;5043708;28;20181;-70
2022/09/14 00:23:43;;;;;;;0.00;0.00;;;21.10;99.90;;;;;;5035609;28;20269;-70
2022/09/14 00:26:12;;;;;;;0.00;0.00;;;21.00;99.90;;;;;;5042184;28;20272;-70
2022/09/14 00:28:44;;;;;;;3.28;0.08;;;20.90;99.90;;;;;;5037903;28;20217;-71
2022/09/14 00:31:10;;;;;;;0.00;0.00;;;20.70;99.90;;;;;;5034489;28;20195;-70
2022/09/14 00:33:37;;;;;;;0.00;0.00;;;20.70;99.90;;;;;;5050106;28;20550;-70
2022/09/14 00:36:15;;;;;;;0.10;0.10;;;20.60;99.90;;;;;;5031285;28;20178;-70
2022/09/14 00:38:41;;;;;;;0.57;0.57;;;20.50;99.90;;;;;;5025641;28;20188;-70
2022/09/14 00:41:11;;;;;;;0.20;0.03;;;20.50;99.90;;;;;;5033289;28;20261;-70
2022/09/14 00:44:12;;;;;;;0.00;0.00;;;20.40;99.90;;;;;;5043527;28;20230;-70
2022/09/14 00:46:42;;;;;;;0.00;0.00;;;20.30;99.90;;;;;;5048424;28;20173;-70
2022/09/14 00:49:11;;;;;;;0.00;0.00;;;20.30;99.90;;;;;;5035479;28;20233;-70
2022/09/14 00:51:47;;;;;;;0.13;0.13;;;20.20;99.90;;;;;;5043588;28;20192;-70
2022/09/14 00:54:12;;;;;;;0.00;0.00;;;20.20;99.90;;;;;;5042443;28;20184;-70
2022/09/14 00:56:38;;;;;;;0.00;0.00;;;20.20;99.90;;;;;;5047281;28;20304;-70
2022/09/14 00:59:14;;;;;;;0.00;0.00;;;20.10;99.90;;;;;;5047634;28;20186;-70
2022/09/14 01:01:40;;;;;;;0.00;0.00;;;20.10;99.90;;;;;;5028298;28;20177;-69
2022/09/14 01:04:06;;;;;;;0.10;0.10;;;20.00;99.90;;;;;;5044985;28;20196;-70
2022/09/14 01:06:39;;;;;;;0.00;0.00;;;20.00;99.90;;;;;;5035612;28;20178;-70
2022/09/14 01:09:38;;;;;;;0.15;0.15;;;19.80;99.90;;;;;;5043261;28;20208;-70
2022/09/14 01:12:24;;;;;;;0.00;0.00;;;19.80;99.90;;;;;;5050365;28;20675;-70
2022/09/14 01:14:57;;;;;;;0.00;0.00;;;19.70;99.90;;;;;;5043396;28;20303;-70
2022/09/14 01:17:29;;;;;;;0.00;0.00;;;19.70;99.90;;;;;;5052552;28;20188;-70
2022/09/14 01:20:10;;;;;;;0.08;0.08;;;19.60;99.90;;;;;;5043644;28;20186;-70
2022/09/14 01:22:57;;;;;;;0.03;0.03;;;19.60;99.90;;;;;;5055719;28;20177;-70
2022/09/14 01:26:06;;;;;;;0.13;0.10;;;19.60;99.90;;;;;;5044809;28;20659;-71
2022/09/14 01:28:42;;;;;;;0.10;0.10;;;19.50;99.90;;;;;;5031513;28;20762;-70
2022/09/14 01:31:20;;;;;;;0.00;0.00;;;19.50;99.90;;;;;;5046456;28;20181;-71
2022/09/14 01:33:56;;;;;;;0.70;0.60;;;19.50;99.90;;;;;;5047294;28;20185;-71
2022/09/14 01:36:25;;;;;;;0.13;0.10;;;19.50;99.90;;;;;;5050205;28;20546;-69
2022/09/14 01:38:52;;;;;;;0.10;0.10;;;19.50;99.90;;;;;;5050909;28;20174;-70
2022/09/14 01:41:22;;;;;;;0.00;0.00;;;19.50;99.90;;;;;;5041252;28;20182;-70
2022/09/14 01:44:00;;;;;;;0.00;0.00;;;19.50;99.90;;;;;;5054139;28;20201;-70
2022/09/14 01:46:39;;;;;;;0.00;0.00;;;19.40;99.90;;;;;;5029330;28;20180;-70
2022/09/14 01:49:21;;;;;;;0.00;0.00;;;19.40;99.90;;;;;;5039198;28;20213;-70
2022/09/14 01:51:51;;;;;;;0.30;0.30;;;19.40;99.90;;;;;;5039953;28;20182;-71
2022/09/14 01:54:51;;;;;;;0.10;0.10;;;19.40;99.90;;;;;;5047428;28;20266;-70
2022/09/14 01:57:23;;;;;;;0.00;0.00;;;19.30;99.90;;;;;;5048857;28;20668;-71
2022/09/14 01:59:52;;;;;;;0.10;0.10;;;19.10;99.90;;;;;;5043991;28;20182;-71
2022/09/14 02:02:27;;;;;;;0.08;0.08;;;18.90;99.90;;;;;;5041739;28;20228;-70
2022/09/14 02:05:05;;;;;;;0.00;0.00;;;18.80;99.90;;;;;;5031005;28;20216;-70
2022/09/14 02:07:32;;;;;;;0.00;0.00;;;18.60;99.90;;;;;;5043230;28;20205;-70
2022/09/14 02:09:58;;;;;;;0.08;0.08;;;18.40;99.90;;;;;;5039108;28;20204;-70
2022/09/14 02:12:24;;;;;;;0.10;0.00;;;18.40;99.90;;;;;;5041714;28;20169;-70
2022/09/14 02:14:52;;;;;;;0.15;0.10;;;18.40;99.90;;;;;;5046422;28;20182;-70
2022/09/14 02:17:18;;;;;;;1.30;0.70;;;18.40;99.90;;;;;;5044049;28;20189;-71
2022/09/14 02:19:47;;;;;;;0.93;0.40;;;18.50;99.90;;;;;;5048826;28;20180;-71
2022/09/14 02:22:13;;;;;;;0.05;0.05;;;18.60;99.90;;;;;;5049058;28;20182;-71
2022/09/14 02:24:39;;;;;;;0.55;0.55;;;18.60;99.90;;;;;;5048787;28;20272;-70
2022/09/14 02:27:06;;;;;;;0.10;0.10;;;18.60;99.90;;;;;;5035728;28;20174;-71
2022/09/14 02:29:32;;;;;;;0.00;0.00;;;18.70;99.90;;;;;;5046230;28;20189;-70
2022/09/14 02:32:08;;;;;;;0.00;0.00;;;18.60;99.90;;;;;;5049453;28;20173;-71
2022/09/14 02:35:05;;;;;;;0.00;0.00;;;18.70;99.90;;;;;;5048944;28;20180;-71
2022/09/14 02:37:59;;;;;;;0.00;0.00;;;18.60;99.90;;;;;;5037986;28;20324;-70
2022/09/14 02:40:30;;;;;;;0.00;0.00;;;18.60;99.90;;;;;;5041788;28;20232;-70
2022/09/14 02:43:29;;;;;;;0.00;0.00;;;18.60;99.90;;;;;;5050322;28;20550;-70
2022/09/14 02:46:03;;;;;;;0.00;0.00;;;18.60;99.90;;;;;;5050216;28;20711;-70
2022/09/14 02:48:52;;;;;;;0.00;0.00;;;18.60;99.90;;;;;;5038431;28;20209;-70
2022/09/14 02:51:23;;;;;;;0.00;0.00;;;18.50;99.90;;;;;;5025318;28;20213;-70
2022/09/14 02:53:54;;;;;;;0.00;0.00;;;18.50;99.90;;;;;;5042339;28;20248;-70
2022/09/14 02:56:20;;;;;;;0.00;0.00;;;18.50;99.90;;;;;;5045798;28;20269;-70
2022/09/14 02:58:46;;;;;;;0.00;0.00;;;18.50;99.90;;;;;;5052111;28;20178;-70
2022/09/14 03:01:14;;;;;;;0.00;0.00;;;18.50;99.90;;;;;;5050842;28;20235;-71
2022/09/14 03:03:40;;;;;;;0.00;0.00;;;18.40;99.90;;;;;;5046060;28;20236;-70
2022/09/14 03:06:05;;;;;;;0.10;0.10;;;18.40;99.90;;;;;;5047890;28;20177;-70
2022/09/14 03:08:31;;;;;;;0.20;0.20;;;18.40;99.90;;;;;;5044867;28;20221;-70
2022/09/14 03:10:57;;;;;;;0.00;0.00;;;18.40;99.90;;;;;;5039773;28;20174;-71
2022/09/14 03:13:23;;;;;;;0.17;0.17;;;18.40;99.90;;;;;;5052101;28;20257;-70
2022/09/14 03:15:49;;;;;;;0.00;0.00;;;18.40;99.90;;;;;;5051414;28;20177;-71
2022/09/14 03:18:15;;;;;;;0.08;0.08;;;18.40;99.90;;;;;;5036773;28;20181;-71
2022/09/14 03:20:42;;;;;;;0.00;0.00;;;18.40;99.90;;;;;;5047759;28;20539;-70
2022/09/14 03:23:10;;;;;;;0.10;0.10;;;18.40;99.90;;;;;;5046282;28;20538;-71
2022/09/14 03:25:37;;;;;;;0.00;0.00;;;18.40;99.90;;;;;;5051434;28;20178;-71
2022/09/14 03:28:04;;;;;;;0.00;0.00;;;18.30;99.90;;;;;;5046300;28;20297;-71
2022/09/14 03:30:30;;;;;;;0.00;0.00;;;18.30;99.90;;;;;;5037813;28;20724;-71
2022/09/14 03:32:57;;;;;;;0.00;0.00;;;18.30;99.90;;;;;;5038959;28;20186;-72
2022/09/14 03:35:23;;;;;;;0.10;0.10;;;18.30;99.90;;;;;;5033259;28;20585;-70
2022/09/14 03:37:49;;;;;;;0.00;0.00;;;18.30;99.90;;;;;;5036948;28;20170;-71
2022/09/14 03:40:15;;;;;;;0.00;0.00;;;18.30;99.90;;;;;;5039253;28;20185;-71
2022/09/14 03:42:46;;;;;;;0.10;0.10;;;18.30;99.90;;;;;;5052350;28;20545;-69
2022/09/14 03:45:13;;;;;;;0.30;0.20;;;18.30;99.90;;;;;;5050531;28;20264;-69
2022/09/14 03:47:39;;;;;;;0.00;0.00;;;18.30;99.90;;;;;;5039255;28;20213;-73
2022/09/14 03:50:07;;;;;;;0.20;0.20;;;18.30;99.90;;;;;;5044154;28;20178;-73
2022/09/14 03:52:33;;;;;;;0.00;0.00;;;18.30;99.90;;;;;;5032014;28;20182;-70
2022/09/14 03:54:59;;;;;;;0.00;0.00;;;18.30;99.90;;;;;;5035327;28;20194;-70
2022/09/14 03:57:25;;;;;;;0.08;0.05;;;18.30;99.90;;;;;;5046221;28;20239;-69
2022/09/14 03:59:50;;;;;;;0.00;0.00;;;18.30;99.90;;;;;;5041766;28;20182;-70
2022/09/14 04:02:15;;;;;;;0.03;0.03;;;18.30;99.90;;;;;;5034535;28;20214;-67
2022/09/14 04:04:41;;;;;;;0.00;0.00;;;18.20;99.90;;;;;;5047950;28;20287;-69
2022/09/14 04:07:07;;;;;;;0.03;0.03;;;18.20;99.90;;;;;;5032492;28;20312;-66
2022/09/14 04:09:32;;;;;;;0.20;0.20;;;18.20;99.90;;;;;;5032208;28;20182;-65
2022/09/14 04:11:58;;;;;;;0.55;0.20;;;18.20;99.90;;;;;;5036393;28;20182;-66
2022/09/14 04:14:24;;;;;;;0.55;0.40;;;18.20;99.90;;;;;;5042150;28;20200;-64
2022/09/14 04:16:50;;;;;;;0.10;0.10;;;18.20;99.90;;;;;;5042087;28;20211;-69
2022/09/14 04:19:16;;;;;;;0.10;0.10;;;18.10;99.90;;;;;;5046816;28;20636;-65
2022/09/14 04:21:41;;;;;;;0.32;0.32;;;18.10;99.90;;;;;;5036767;28;20276;-66
2022/09/14 04:24:11;;;;;;;0.10;0.10;;;18.10;99.90;;;;;;5032330;28;20516;-70
2022/09/14 04:26:37;;;;;;;0.17;0.17;;;18.10;99.90;;;;;;5033349;28;20216;-66
2022/09/14 04:29:02;;;;;;;0.10;0.10;;;18.10;99.90;;;;;;5043951;28;20236;-69
2022/09/14 04:31:28;;;;;;;0.65;0.52;;;18.00;99.90;;;;;;5035423;28;20182;-69
2022/09/14 04:33:55;;;;;;;0.22;0.22;;;18.10;99.90;;;;;;5033689;28;20182;-69
2022/09/14 04:36:26;;;;;;;0.10;0.10;;;18.10;99.90;;;;;;5046355;28;20500;-62
2022/09/14 04:38:53;;;;;;;0.15;0.15;;;18.10;99.90;;;;;;5040087;28;20181;-64
2022/09/14 04:41:20;;;;;;;0.13;0.13;;;18.10;99.90;;;;;;5042727;28;20197;-66
2022/09/14 04:43:46;;;;;;;0.30;0.30;;;18.10;99.90;;;;;;5033895;28;20193;-69
2022/09/14 04:46:15;;;;;;;0.05;0.05;;;18.00;99.90;;;;;;5032222;28;20566;-70
2022/09/14 04:48:40;;;;;;;0.03;0.03;;;18.00;99.90;;;;;;5031836;28;20221;-70
2022/09/14 04:51:09;;;;;;;0.10;0.10;;;18.00;99.90;;;;;;5032151;28;20289;-70
2022/09/14 04:53:36;;;;;;;0.00;0.00;;;18.00;99.90;;;;;;5031988;28;20182;-70
2022/09/14 04:56:04;;;;;;;0.00;0.00;;;17.90;99.90;;;;;;5030947;28;20174;-69
2022/09/14 04:58:29;;;;;;;0.10;0.10;;;17.90;99.90;;;;;;5031809;28;20170;-70
2022/09/14 05:01:16;;;;;;;0.10;0.10;;;17.90;99.90;;;;;;5031921;28;20680;-70
2022/09/14 05:03:43;;;;;;;0.10;0.10;;;17.90;99.90;;;;;;5031725;28;20703;-70
2022/09/14 05:06:17;;;;;;;0.10;0.10;;;17.80;99.90;;;;;;5031840;28;20191;-70
2022/09/14 05:08:44;;;;;;;0.20;0.20;;;17.80;99.90;;;;;;5031486;28;20221;-70
2022/09/14 05:11:15;;;;;;;0.00;0.00;;;17.80;99.90;;;;;;5031754;28;20170;-70
2022/09/14 05:13:41;;;;;;;0.10;0.10;;;17.80;99.90;;;;;;5031777;28;20672;-70
2022/09/14 05:16:09;;;;;;;0.00;0.00;;;17.90;99.90;;;;;;5031767;28;20202;-70
2022/09/14 05:18:35;;;;;;;0.00;0.00;;;17.90;99.90;;;;;;5031702;28;20193;-70
2022/09/14 05:21:03;;;;;;;0.00;0.00;;;17.90;99.90;;;;;;5031779;28;20174;-70
2022/09/14 05:23:29;;;;;;;0.30;0.30;;;17.90;99.90;;;;;;5030312;28;20178;-70
2022/09/14 05:25:55;;;;;;;0.00;0.00;;;17.90;99.90;;;;;;5032009;28;20182;-71
2022/09/14 05:28:20;;;;;;;0.20;0.20;;;18.00;99.90;;;;;;5030339;28;20561;-70
2022/09/14 05:30:46;;;;;;;0.00;0.00;;;18.00;99.90;;;;;;5031816;28;20177;-71
2022/09/14 05:33:12;;;;;;;0.00;0.00;;;18.00;99.90;;;;;;5031714;28;20577;-70
2022/09/14 05:35:37;;;;;;;0.05;0.05;;;18.00;99.90;;;;;;5031725;28;20182;-70
2022/09/14 05:38:03;;;;;;;0.40;0.35;;;18.00;99.90;;;;;;5031847;28;20657;-71
2022/09/14 05:40:28;;;;;;;0.20;0.20;;;18.00;99.90;;;;;;5031679;28;20174;-70
2022/09/14 05:42:54;;;;;;;0.20;0.20;;;18.00;99.90;;;;;;5031772;28;20265;-70
2022/09/14 05:45:19;;;;;;;0.10;0.10;;;18.00;99.90;;;;;;5031666;28;20259;-71
2022/09/14 05:47:45;;;;;;;0.00;0.00;;;18.10;99.90;;;;;;5031210;28;20198;-71
2022/09/14 05:50:10;;;;;;;0.13;0.13;;;18.10;99.90;;;;;;5031696;28;20213;-71
2022/09/14 05:52:36;;;;;;;0.10;0.10;;;18.20;99.90;;;;;;5031634;28;20178;-70
2022/09/14 05:55:01;;;;;;;0.00;0.00;;;18.20;99.90;;;;;;5031443;28;20178;-71
2022/09/14 05:57:27;;;;;;;0.00;0.00;;;18.20;99.90;;;;;;5034108;28;20217;-70
2022/09/14 05:59:52;;;;;;;0.10;0.10;;;18.20;99.90;;;;;;5035265;28;20684;-71
2022/09/14 06:02:18;;;;;;;0.00;0.00;;;18.20;99.90;;;;;;5035064;28;20261;-71
2022/09/14 06:04:43;;;;;;;0.10;0.10;;;18.20;99.90;;;;;;5035333;28;20182;-71
2022/09/14 06:07:09;;;;;;;0.00;0.00;;;18.20;99.90;;;;;;5035163;28;20178;-71
2022/09/14 06:09:34;;;;;;;0.68;0.30;;;18.20;99.90;;;;;;5035159;28;20197;-70
2022/09/14 06:12:00;;;;;;;0.20;0.20;;;18.30;99.90;;;;;;5034998;28;20265;-70
2022/09/14 06:14:25;;;;;;;0.20;0.20;;;18.30;99.90;;;;;;5033789;28;20185;-70
2022/09/14 06:16:51;;;;;;;0.00;0.00;;;18.30;99.90;;;;;;5033810;28;20197;-70
2022/09/14 06:19:16;;;;;;;0.00;0.00;;;18.30;99.90;;;;;;5034994;28;20174;-71
2022/09/14 06:21:42;;;;;;;0.00;0.00;;;18.30;99.90;;;;;;5034836;28;20193;-70
2022/09/14 06:24:11;;;;;;;0.00;0.00;;;18.30;99.90;;;;;;5035037;28;20166;-71
2022/09/14 06:26:37;;;;;;;0.00;0.00;;;18.30;99.90;;;;;;5034814;28;20276;-70
2022/09/14 06:29:03;;;;;;;0.03;0.03;;;18.30;99.90;;;;;;5034758;28;20228;-70
2022/09/14 06:31:28;;;;;;;0.00;0.00;;;18.30;99.90;;;;;;5034593;28;20171;-71
2022/09/14 06:33:54;;;;;;;0.00;0.00;;;18.30;99.90;;;;;;5034784;28;20178;-70
2022/09/14 06:36:24;;;;;;;0.00;0.00;;;18.30;99.90;;;;;;5034564;28;20178;-71
2022/09/14 06:38:51;;;;;;;0.20;0.20;;;18.30;99.90;;;;;;5034536;28;20178;-70
2022/09/14 06:41:19;;;;;;;0.00;0.00;;;18.30;99.90;;;;;;5034663;28;20232;-70
2022/09/14 06:43:45;;;;;;;0.00;0.00;;;18.30;99.90;;;;;;5034447;28;20180;-70
2022/09/14 06:46:18;;;;;;;0.00;0.00;;;18.30;99.90;;;;;;5034441;28;20179;-71
2022/09/14 06:48:48;;;;;;;0.10;0.10;;;18.40;99.90;;;;;;5034186;28;20226;-70
2022/09/14 06:51:23;;;;;;;0.00;0.00;;;18.40;99.90;;;;;;5034508;28;20178;-70
2022/09/14 06:53:49;;;;;;;0.00;0.00;;;18.30;99.90;;;;;;5034326;28;20213;-70
2022/09/14 06:56:15;;;;;;;0.00;0.00;;;18.40;99.90;;;;;;5034299;28;20171;-70
2022/09/14 06:58:41;;;;;;;0.10;0.10;;;18.40;99.90;;;;;;5034026;28;20517;-70
2022/09/14 07:01:10;;;;;;;0.00;0.00;;;18.40;99.90;;;;;;5034349;28;20178;-71
2022/09/14 07:03:37;;;;;;;0.03;0.03;;;18.40;99.90;;;;;;5034095;28;20237;-70
2022/09/14 07:06:05;;;;;;;0.10;0.10;;;18.50;99.90;;;;;;5034166;28;20181;-70
2022/09/14 07:08:32;;;;;;;0.13;0.13;;;18.50;99.90;;;;;;5033633;28;20301;-70
2022/09/14 07:10:58;;;;;;;0.08;0.08;;;18.50;99.90;;;;;;5034178;28;20631;-70
2022/09/14 07:13:24;;;;;;;0.20;0.20;;;18.60;99.90;;;;;;5034068;28;20272;-70
2022/09/14 07:15:50;;;;;;;0.10;0.10;;;18.60;99.90;;;;;;5034012;28;20249;-70
2022/09/14 07:18:15;;;;;;;0.30;0.30;;;18.70;99.90;;;;;;5033893;28;20185;-70
2022/09/14 07:20:41;;;;;;;0.05;0.05;;;18.70;99.90;;;;;;5033812;28;20606;-70
2022/09/14 07:23:06;;;;;;;0.05;0.05;;;18.70;99.90;;;;;;5033800;28;20557;-70
2022/09/14 07:25:32;;;;;;;0.00;0.00;;;18.80;99.90;;;;;;5033737;28;20261;-70
2022/09/14 07:27:59;;;;;;;0.22;0.22;;;18.90;99.90;;;;;;5033709;28;20279;-70
2022/09/14 07:30:26;;;;;;;0.43;0.40;;;19.00;99.90;;;;;;5033720;28;20179;-70
2022/09/14 07:32:52;;;;;;;0.35;0.35;;;19.10;99.90;;;;;;5033538;28;20564;-70
2022/09/14 07:35:18;;;;;;;0.00;0.00;;;19.10;99.90;;;;;;5033584;28;20189;-70
2022/09/14 07:37:43;;;;;;;0.00;0.00;;;19.20;99.90;;;;;;5033517;28;20182;-70
2022/09/14 07:40:09;;;;;;;0.15;0.15;;;19.30;99.90;;;;;;5033598;28;20201;-70
2022/09/14 07:42:36;;;;;;;0.60;0.60;;;19.40;99.90;;;;;;5032103;28;20178;-69
2022/09/14 07:45:03;;;;;;;0.00;0.00;;;19.60;99.90;;;;;;5033265;28;20235;-70
2022/09/14 07:47:28;;;;;;;0.00;0.00;;;19.60;99.90;;;;;;5033247;28;20213;-70
2022/09/14 07:49:54;;;;;;;0.10;0.10;;;19.70;99.90;;;;;;5033424;28;20274;-70
2022/09/14 07:52:19;;;;;;;0.10;0.10;;;19.90;99.90;;;;;;5033199;28;20194;-70
2022/09/14 07:54:45;;;;;;;0.10;0.10;;;20.10;99.90;;;;;;5033049;28;20580;-70
2022/09/14 07:57:11;;;;;;;0.17;0.17;;;20.20;99.90;;;;;;5033203;28;20178;-70
2022/09/14 07:59:37;;;;;;;0.45;0.45;;;20.30;99.90;;;;;;5033182;28;20170;-70
2022/09/14 08:02:07;;;;;;;0.25;0.10;;;20.40;99.90;;;;;;5032913;28;20221;-70
2022/09/14 08:04:38;;;;;;;0.25;0.25;;;20.50;99.90;;;;;;5032997;28;20239;-70
2022/09/14 08:07:04;;;;;;;0.38;0.38;;;20.50;99.90;;;;;;5031725;28;20587;-70
2022/09/14 08:09:30;;;;;;;0.00;0.00;;;20.60;99.90;;;;;;5032960;28;20181;-69
2022/09/14 08:11:56;;;;;;;0.03;0.03;;;20.90;99.90;;;;;;5031712;28;20684;-69
2022/09/14 08:14:21;;;;;;;0.20;0.20;;;21.20;99.90;;;;;;5032869;28;20186;-68
2022/09/14 08:16:47;;;;;;;0.00;0.00;;;21.50;99.90;;;;;;5032905;28;20170;-70
2022/09/14 08:19:15;;;;;;;0.22;0.22;;;21.90;99.90;;;;;;5032044;28;20174;-70
2022/09/14 08:21:42;;;;;;;0.20;0.20;;;22.10;99.90;;;;;;5032619;28;20194;-69
2022/09/14 08:24:10;;;;;;;0.08;0.08;;;22.20;99.90;;;;;;5032740;28;20185;-69
2022/09/14 08:26:36;;;;;;;0.00;0.00;;;22.10;99.90;;;;;;5032707;28;20180;-70
2022/09/14 08:29:03;;;;;;;0.40;0.40;;;22.20;99.90;;;;;;5032521;28;20292;-69
2022/09/14 08:31:30;;;;;;;0.00;0.00;;;22.30;99.90;;;;;;5032518;28;20189;-70
2022/09/14 08:34:01;;;;;;;0.00;0.00;;;22.20;99.90;;;;;;5032528;28;20232;-69
2022/09/14 08:36:29;;;;;;;0.20;0.20;;;22.10;99.90;;;;;;5032392;28;20831;-69
2022/09/14 08:38:55;;;;;;;0.28;0.28;;;22.00;99.90;;;;;;5032543;28;20179;-70
2022/09/14 08:41:39;;;;;;;0.28;0.28;;;22.00;99.90;;;;;;5032292;28;20193;-68
2022/09/14 08:44:27;;;;;;;0.00;0.00;;;22.00;99.90;;;;;;5032323;28;20182;-70
2022/09/14 08:47:04;;;;;;;0.00;0.00;;;22.10;99.90;;;;;;5032311;28;20174;-70
2022/09/14 08:49:55;;;;;;;0.00;0.00;;;22.10;99.90;;;;;;5032186;28;20188;-70
2022/09/14 08:52:42;;;;;;;0.10;0.10;;;22.50;99.90;;;;;;5032086;28;20182;-69
2022/09/14 08:55:34;;;;;;;0.08;0.08;;;22.80;99.90;;;;;;5032242;28;20182;-70
2022/09/14 08:58:16;;;;;;;0.32;0.30;;;23.40;99.90;;;;;;5029467;28;20189;-70
2022/09/14 09:00:45;;;;;;;0.17;0.17;;;24.10;99.90;;;;;;5031965;28;20629;-69
2022/09/14 09:03:35;;;;;;;0.15;0.15;;;24.50;99.90;;;;;;5031783;28;20239;-70
2022/09/14 09:06:30;;;;;;;0.30;0.30;;;25.10;99.90;;;;;;5032008;28;20228;-69
2022/09/14 09:09:11;;;;;;;0.00;0.00;;;25.40;99.90;;;;;;5032072;28;20295;-70
2022/09/14 09:11:41;;;;;;;0.00;0.00;;;25.70;99.90;;;;;;5032035;28;20193;-69
2022/09/14 09:14:25;;;;;;;0.20;0.20;;;26.20;99.90;;;;;;5032053;28;20186;-70
2022/09/14 09:16:55;;;;;;;0.55;0.32;;;26.20;99.90;;;;;;5031966;28;20185;-68
2022/09/14 09:19:26;;;;;;;0.13;0.13;;;25.90;99.90;;;;;;5031933;28;20328;-69
2022/09/14 09:21:52;;;;;;;0.08;0.08;;;25.60;99.90;;;;;;5032021;28;20542;-69
2022/09/14 09:24:36;;;;;;;0.00;0.00;;;25.60;99.90;;;;;;5031767;28;20189;-69
2022/09/14 09:27:12;;;;;;;0.00;0.00;;;25.80;99.90;;;;;;5031833;28;20182;-69
2022/09/14 09:29:38;;;;;;;0.00;0.00;;;26.10;99.90;;;;;;5031754;28;20197;-70
2022/09/14 09:32:06;;;;;;;0.22;0.22;;;26.30;99.90;;;;;;5035639;28;20175;-69
2022/09/14 09:34:33;;;;;;;0.00;0.00;;;26.50;99.90;;;;;;5035724;28;20178;-69
2022/09/14 09:36:59;;;;;;;0.00;0.00;;;27.00;99.90;;;;;;5035781;28;20264;-69
2022/09/14 09:39:28;;;;;;;0.13;0.13;;;27.10;99.90;;;;;;5035646;28;20205;-69
2022/09/14 09:41:59;;;;;;;0.47;0.35;;;27.20;99.90;;;;;;5035706;28;20190;-70
2022/09/14 09:44:24;;;;;;;0.20;0.10;;;27.20;99.90;;;;;;5035596;28;20185;-69
2022/09/14 09:46:58;;;;;;;0.00;0.00;;;27.10;99.90;;;;;;5035619;28;20162;-70
2022/09/14 09:49:38;;;;;;;0.10;0.10;;;27.30;99.90;;;;;;5035505;28;20674;-69
2022/09/14 09:52:14;;;;;;;0.00;0.00;;;27.30;99.90;;;;;;5035708;28;20229;-69
2022/09/14 09:54:42;;;;;;;0.28;0.20;;;27.00;99.90;;;;;;5035333;28;20174;-70
2022/09/14 09:57:32;;;;;;;0.00;0.00;;;26.80;99.90;;;;;;5035412;28;20717;-69
2022/09/14 10:00:20;;;;;;;0.00;0.00;;;26.50;99.90;;;;;;5035399;28;20645;-69
2022/09/14 10:02:46;;;;;;;0.00;0.00;;;26.40;99.90;;;;;;5035126;28;20280;-70
2022/09/14 10:05:30;;;;;;;0.00;0.00;;;26.40;99.90;;;;;;5035394;28;20182;-70
2022/09/14 10:08:02;;;;;;;0.08;0.08;;;26.20;99.90;;;;;;5035296;28;20225;-70
2022/09/14 10:10:33;;;;;;;0.00;0.00;;;25.80;99.90;;;;;;5035171;28;20700;-70
2022/09/14 10:12:59;;;;;;;0.00;0.00;;;25.70;99.90;;;;;;5035088;28;20294;-70
2022/09/14 10:15:33;;;;;;;0.00;0.00;;;25.70;99.90;;;;;;5035122;28;20236;-70
2022/09/14 10:18:16;;;;;;;0.00;0.00;;;25.70;99.90;;;;;;5035011;28;20182;-70
2022/09/14 10:21:05;;;;;;;0.10;0.10;;;25.60;99.90;;;;;;5034891;28;20178;-70
2022/09/14 10:23:35;;;;;;;0.00;0.00;;;25.70;99.90;;;;;;5035055;28;20265;-69
2022/09/14 10:26:12;;;;;;;0.13;0.13;;;25.70;99.90;;;;;;5034945;28;20202;-70
2022/09/14 10:28:43;;;;;;;0.30;0.20;;;25.90;99.90;;;;;;5034794;28;20679;-70
2022/09/14 10:31:19;;;;;;;0.00;0.00;;;25.90;99.90;;;;;;5034873;28;20174;-70
2022/09/14 10:33:55;;;;;;;0.38;0.38;;;25.90;99.90;;;;;;5034794;28;20232;-70
2022/09/14 10:36:41;;;;;;;0.00;0.00;;;25.80;99.90;;;;;;5034574;28;20700;-69
2022/09/14 10:39:16;;;;;;;0.00;0.00;;;25.80;99.90;;;;;;5034752;28;20162;-71
2022/09/14 10:42:11;;;;;;;0.00;0.00;;;25.80;99.90;;;;;;5033958;28;20185;-70
2022/09/14 10:44:59;;;;;;;0.00;0.00;;;26.00;99.90;;;;;;5034435;28;20177;-71
2022/09/14 10:47:51;;;;;;;1.42;0.25;;;26.50;99.90;;;;;;5034459;28;20182;-70
2022/09/14 10:50:45;;;;;;;0.10;0.10;;;26.80;99.90;;;;;;5034514;28;20182;-70
2022/09/14 10:53:32;;;;;;;0.00;0.00;;;26.80;99.90;;;;;;5034458;28;20378;-70
2022/09/14 10:56:22;;;;;;;0.00;0.00;;;26.70;99.90;;;;;;5034419;28;20185;-70
2022/09/14 10:59:26;;;;;;;0.00;0.00;;;26.70;99.90;;;;;;5034279;28;20304;-71
2022/09/14 11:02:03;;;;;;;0.20;0.20;;;26.70;99.90;;;;;;5021819;28;20299;-71
2022/09/14 11:05:02;;;;;;;0.00;0.00;;;26.60;99.90;;;;;;5034115;28;20528;-71
2022/09/14 11:07:40;;;;;;;0.00;0.00;;;26.80;99.90;;;;;;5033897;28;20212;-70
2022/09/14 11:10:15;;;;;;;0.05;0.05;;;27.10;99.90;;;;;;5034072;28;20549;-70
2022/09/14 11:12:50;;;;;;;0.00;0.00;;;27.20;99.90;;;;;;5033785;28;20272;-69
2022/09/14 11:15:22;;;;;;;0.17;0.17;;;27.20;99.90;;;;;;5034029;28;20279;-70
2022/09/14 11:18:12;;;;;;;0.00;0.00;;;27.10;99.90;;;;;;5033956;28;20174;-70
2022/09/14 11:20:54;;;;;;;0.00;0.00;;;27.30;99.90;;;;;;5033970;28;20569;-71
2022/09/14 11:23:54;;;;;;;0.00;0.00;;;27.60;99.90;;;;;;5033859;28;20598;-71
2022/09/14 11:26:42;;;;;;;0.00;0.00;;;27.90;99.90;;;;;;5033672;28;20583;-71
2022/09/14 11:29:23;;;;;;;0.00;0.00;;;28.00;99.90;;;;;;5033760;28;20673;-71
2022/09/14 11:31:52;;;;;;;0.00;0.00;;;28.10;99.90;;;;;;5033677;28;20178;-70
2022/09/14 11:34:26;;;;;;;0.00;0.00;;;27.90;99.90;;;;;;5033645;28;20205;-70
2022/09/14 11:36:58;;;;;;;0.00;0.00;;;27.80;99.90;;;;;;5033575;28;20573;-70
2022/09/14 11:39:30;;;;;;;0.00;0.00;;;27.70;99.90;;;;;;5033569;28;20308;-70
2022/09/14 11:42:02;;;;;;;0.52;0.45;;;27.70;99.90;;;;;;5033630;28;20177;-70
2022/09/14 11:44:33;;;;;;;0.63;0.28;;;27.80;99.90;;;;;;5033469;28;20182;-70
2022/09/14 11:47:03;;;;;;;0.17;0.17;;;28.10;99.90;;;;;;5033294;28;20178;-70
2022/09/14 11:49:54;;;;;;;0.00;0.00;;;28.40;99.50;;;;;;5033227;28;20229;-70
2022/09/14 11:52:22;;;;;;;0.10;0.10;;;28.50;99.20;;;;;;5033248;28;20268;-70
2022/09/14 11:54:49;;;;;;;0.00;0.00;;;28.30;99.60;;;;;;5032361;28;20186;-70
2022/09/14 11:57:33;;;;;;;0.00;0.00;;;28.10;99.60;;;;;;5033192;28;20656;-70
2022/09/14 12:00:09;;;;;;;0.00;0.00;;;27.80;99.80;;;;;;5033152;28;20265;-71
2022/09/14 12:02:34;;;;;;;0.00;0.00;;;27.60;99.90;;;;;;5032941;28;20213;-70
2022/09/14 12:05:06;;;;;;;0.00;0.00;;;27.40;99.90;;;;;;5032998;28;20174;-70
2022/09/14 12:07:46;;;;;;;0.00;0.00;;;27.20;99.90;;;;;;5032884;28;20210;-70
2022/09/14 12:10:17;;;;;;;0.00;0.00;;;26.90;99.90;;;;;;5033034;28;20182;-70
2022/09/14 12:12:43;;;;;;;0.00;0.00;;;26.70;99.90;;;;;;5032848;28;20181;-70
2022/09/14 12:15:23;;;;;;;0.00;0.00;;;26.60;99.90;;;;;;5032905;28;20182;-70
2022/09/14 12:17:50;;;;;;;0.30;0.17;;;26.40;99.90;;;;;;5032810;28;20637;-71
2022/09/14 12:20:29;;;;;;;0.00;0.00;;;26.30;99.90;;;;;;5032767;28;20181;-70
2022/09/14 12:23:28;;;;;;;0.08;0.00;;;26.20;99.90;;;;;;5032773;28;20174;-70
2022/09/14 12:25:59;;;;;;;0.08;0.08;;;26.00;99.90;;;;;;5032734;28;20200;-70
2022/09/14 12:28:34;;;;;;;0.00;0.00;;;25.90;99.90;;;;;;5032562;28;20566;-71
2022/09/14 12:31:03;;;;;;;0.15;0.10;;;25.70;99.90;;;;;;5032480;28;20165;-70
2022/09/14 12:33:31;;;;;;;0.00;0.00;;;25.50;99.90;;;;;;5032597;28;20249;-70
2022/09/14 12:36:19;;;;;;;0.00;0.00;;;25.40;99.90;;;;;;5032589;28;20173;-70
2022/09/14 12:38:54;;;;;;;0.00;0.00;;;25.30;99.90;;;;;;5032507;28;20178;-71
2022/09/14 12:41:19;;;;;;;0.32;0.30;;;25.20;99.90;;;;;;5032405;28;20192;-71
2022/09/14 12:43:47;;;;;;;0.00;0.00;;;25.00;99.90;;;;;;5032268;28;20550;-71
2022/09/14 12:46:19;;;;;;;0.00;0.00;;;24.90;99.90;;;;;;5032312;28;20272;-70
2022/09/14 12:48:45;;;;;;;0.00;0.00;;;24.80;99.90;;;;;;5032235;28;20228;-70
2022/09/14 12:51:40;;;;;;;0.00;0.00;;;24.70;99.90;;;;;;5032339;28;20170;-71
2022/09/14 12:54:17;;;;;;;0.00;0.00;;;24.60;99.90;;;;;;5032346;28;20178;-70
2022/09/14 12:56:57;;;;;;;0.00;0.00;;;24.50;99.90;;;;;;5032085;28;20668;-70
2022/09/14 12:59:44;;;;;;;0.10;0.05;;;24.40;99.90;;;;;;5032131;28;20185;-70
2022/09/14 13:02:21;;;;;;;0.17;0.10;;;24.20;99.90;;;;;;5032038;28;20218;-70
2022/09/14 13:04:52;;;;;;;0.10;0.10;;;24.10;99.90;;;;;;5031776;28;20280;-69
2022/09/14 13:07:19;;;;;;;0.00;0.00;;;23.30;99.90;;;;;;5032077;28;20527;-68
2022/09/14 13:09:49;;;;;;;0.50;0.50;;;22.60;99.90;;;;;;5031946;28;20186;-68
2022/09/14 13:12:28;;;;;;;0.00;0.00;;;21.90;99.90;;;;;;5031989;28;20206;-68